Time;durP1;ratioP1;P1;durP2;ratioP2;P2;SDS_P1;SDS_P2;PMS_P1;PMS_P2;Temp;Humidity;BMP_temperature;BMP_pressure;BME280_temperature;BME280_humidity;BME280_pressure;Samples;Min_cycle;Max_cycle;Signal;HPM_P1;HPM_P2
2022/05/10 00:02:07;;;;;;;;;;;16.30;99.90;;;;;;5113463;28;19914;-76
2022/05/10 00:04:33;;;;;;;;;;;16.40;99.90;;;;;;5113193;28;19961;-76
2022/05/10 00:07:00;;;;;;;;;;;16.50;99.90;;;;;;5113375;28;19912;-76
2022/05/10 00:09:29;;;;;;;;;;;16.60;99.90;;;;;;5113393;28;19960;-75
2022/05/10 00:11:57;;;;;;;;;;;16.70;99.90;;;;;;5111938;28;19915;-74
2022/05/10 00:14:27;;;;;;;;;;;16.90;99.90;;;;;;5087944;28;20336;-75
2022/05/10 00:16:54;;;;;;;;;;;16.90;99.90;;;;;;5071920;28;19913;-75
2022/05/10 00:19:22;;;;;;;;;;;17.00;99.90;;;;;;5071682;28;19917;-75
2022/05/10 00:21:49;;;;;;;;;;;17.00;99.90;;;;;;5071860;28;19908;-77
2022/05/10 00:24:16;;;;;;;;;;;17.00;99.90;;;;;;5105009;28;20318;-75
2022/05/10 00:26:43;;;;;;;;;;;17.20;99.90;;;;;;5113059;28;19912;-75
2022/05/10 00:29:10;;;;;;;;;;;17.50;99.90;;;;;;5113336;28;19960;-74
2022/05/10 00:31:36;;;;;;;;;;;17.60;99.90;;;;;;5112803;28;19930;-74
2022/05/10 00:34:03;;;;;;;;;;;17.70;99.90;;;;;;5112976;28;20279;-74
2022/05/10 00:36:30;;;;;;;;;;;17.80;99.90;;;;;;5113126;28;19969;-74
2022/05/10 00:38:57;;;;;;;;;;;18.10;99.90;;;;;;5113085;28;20377;-74
2022/05/10 00:41:34;;;;;;;;;;;18.10;99.90;;;;;;5113203;28;19993;-74
2022/05/10 00:44:14;;;;;;;;;;;18.20;99.90;;;;;;5113014;28;20003;-75
2022/05/10 00:46:43;;;;;;;;;;;18.30;99.90;;;;;;5113103;28;19908;-76
2022/05/10 00:49:19;;;;;;;;;;;18.50;99.90;;;;;;5116345;28;19907;-75
2022/05/10 00:51:53;;;;;;;;;;;18.50;99.90;;;;;;5116559;28;19996;-76
2022/05/10 00:54:23;;;;;;;;;;;18.50;99.90;;;;;;5116595;28;19908;-75
2022/05/10 00:56:58;;;;;;;;;;;18.60;99.90;;;;;;5116575;28;20251;-74
2022/05/10 00:59:28;;;;;;;;;;;18.60;99.90;;;;;;5116454;28;19916;-75
2022/05/10 01:02:04;;;;;;;;;;;18.70;99.90;;;;;;5116183;28;19977;-74
2022/05/10 01:04:43;;;;;;;;;;;18.70;99.90;;;;;;5116435;28;20407;-75
2022/05/10 01:07:10;;;;;;;;;;;18.90;99.90;;;;;;5116216;28;19915;-75
2022/05/10 01:09:39;;;;;;;;;;;18.90;99.90;;;;;;5116067;28;20350;-75
2022/05/10 01:12:06;;;;;;;;;;;19.10;99.90;;;;;;5116205;28;19915;-76
2022/05/10 01:14:35;;;;;;;;;;;19.10;99.90;;;;;;5116029;28;19912;-75
2022/05/10 01:17:02;;;;;;;;;;;19.20;99.90;;;;;;5116046;28;20314;-75
2022/05/10 01:19:29;;;;;;;;;;;19.20;99.90;;;;;;5115796;28;19938;-76
2022/05/10 01:22:04;;;;;;;;;;;19.20;99.90;;;;;;5116016;28;19912;-75
2022/05/10 01:24:31;;;;;;;;;;;19.20;99.90;;;;;;5116136;28;19907;-75
2022/05/10 01:27:18;;;;;;;;;;;19.30;99.90;;;;;;5116087;28;19915;-75
2022/05/10 01:29:59;;;;;;;;;;;19.30;99.90;;;;;;5115768;28;20392;-75
2022/05/10 01:35:31;;;;;;;;;;;19.40;99.90;;;;;;5115755;28;20011;-75
2022/05/10 01:38:03;;;;;;;;;;;19.40;99.90;;;;;;5115823;28;19908;-75
2022/05/10 01:40:34;;;;;;;;;;;19.40;99.90;;;;;;5115680;28;20367;-75
2022/05/10 01:43:13;;;;;;;;;;;19.30;99.90;;;;;;5115551;28;20349;-75
2022/05/10 01:45:50;;;;;;;;;;;19.40;99.90;;;;;;5115533;28;20046;-75
2022/05/10 01:48:18;;;;;;;;;;;19.40;99.90;;;;;;5115622;28;19908;-75
2022/05/10 01:50:48;;;;;;;;;;;19.30;99.90;;;;;;5115149;28;19920;-75
2022/05/10 01:53:21;;;;;;;;;;;19.40;99.90;;;;;;5115321;28;20006;-76
2022/05/10 01:55:49;;;;;;;;;;;19.40;99.90;;;;;;5115340;28;20226;-75
2022/05/10 01:58:26;;;;;;;;;;;19.50;99.90;;;;;;5115235;28;19977;-75
2022/05/10 02:01:00;;;;;;;;;;;19.50;99.90;;;;;;5097495;28;19924;-76
2022/05/10 02:03:38;;;;;;;;;;;19.40;99.90;;;;;;5081123;28;19981;-74
2022/05/10 02:06:21;;;;;;;;;;;19.40;99.90;;;;;;5074743;28;20337;-74
2022/05/10 02:08:57;;;;;;;;;;;19.50;99.90;;;;;;5074732;28;19908;-75
2022/05/10 02:11:23;;;;;;;;;;;19.50;99.90;;;;;;5074436;28;19916;-76
2022/05/10 02:14:05;;;;;;;;;;;19.50;99.90;;;;;;5074226;28;19912;-75
2022/05/10 02:16:50;;;;;;;;;;;19.60;99.90;;;;;;5074497;28;19909;-76
2022/05/10 02:19:16;;;;;;;;;;;19.60;99.90;;;;;;5074154;28;19992;-76
2022/05/10 02:21:47;;;;;;;;;;;19.70;99.90;;;;;;5074103;28;19908;-76
2022/05/10 02:24:17;;;;;;;;;;;19.60;99.90;;;;;;5074174;28;19931;-77
2022/05/10 02:26:56;;;;;;;;;;;19.60;99.90;;;;;;5074143;28;19909;-76
2022/05/10 02:29:25;;;;;;;;;;;19.60;99.90;;;;;;5074365;28;19919;-75
2022/05/10 02:34:42;;;;;;;;;;;19.60;99.90;;;;;;5074031;28;19915;-75
2022/05/10 02:37:08;;;;;;;;;;;19.60;99.90;;;;;;5074017;28;19915;-77
2022/05/10 02:39:35;;;;;;;;;;;19.60;99.90;;;;;;5073881;28;19966;-76
2022/05/10 02:42:02;;;;;;;;;;;19.50;99.90;;;;;;5073818;28;20011;-76
2022/05/10 02:44:29;;;;;;;;;;;19.50;99.90;;;;;;5074055;28;19997;-76
2022/05/10 02:46:57;;;;;;;;;;;19.50;99.90;;;;;;5073882;28;20283;-76
2022/05/10 02:49:23;;;;;;;;;;;19.50;99.90;;;;;;5073552;28;19909;-75
2022/05/10 02:51:50;;;;;;;;;;;19.50;99.90;;;;;;5073615;28;19920;-75
2022/05/10 02:54:17;;;;;;;;;;;19.00;99.90;;;;;;5073574;28;19909;-75
2022/05/10 02:56:44;;;;;;;;;;;18.50;99.90;;;;;;5073547;28;20271;-75
2022/05/10 02:59:22;;;;;;;;;;;18.20;99.90;;;;;;5073636;28;20011;-74
2022/05/10 03:01:51;;;;;;;;;;;18.10;99.90;;;;;;5073395;28;19999;-74
2022/05/10 03:04:18;;;;;;;;;;;18.00;99.90;;;;;;5073449;28;19912;-75
2022/05/10 03:06:46;;;;;;;;;;;17.90;99.90;;;;;;5073504;28;19908;-75
2022/05/10 03:09:13;;;;;;;;;;;17.80;99.90;;;;;;5073316;28;19913;-75
2022/05/10 03:11:40;;;;;;;;;;;17.80;99.90;;;;;;5073018;28;19908;-75
2022/05/10 03:14:08;;;;;;;;;;;17.70;99.90;;;;;;5073315;28;19959;-75
2022/05/10 03:16:35;;;;;;;;;;;17.70;99.90;;;;;;5055447;28;20248;-75
2022/05/10 03:19:03;;;;;;;;;;;17.60;99.90;;;;;;5073043;28;19913;-77
2022/05/10 03:21:29;;;;;;;;;;;17.80;99.90;;;;;;5073364;28;19916;-76
2022/05/10 03:23:56;;;;;;;;;;;17.90;99.90;;;;;;5088955;28;20441;-75
2022/05/10 03:26:24;;;;;;;;;;;18.20;99.90;;;;;;5073285;28;19919;-76
2022/05/10 03:28:51;;;;;;;;;;;18.20;99.90;;;;;;5073376;28;19909;-75
2022/05/10 03:31:19;;;;;;;;;;;18.30;99.90;;;;;;5073231;28;19909;-74
2022/05/10 03:34:53;;;;;;;;;;;18.60;99.90;;;;;;5072811;28;19908;-76
2022/05/10 03:36:32;;;;;;;;;;;18.40;99.90;;;;;;5073285;28;19908;-75
2022/05/10 03:38:58;;;;;;;;;;;18.40;99.90;;;;;;5073165;28;20279;-76
2022/05/10 03:41:25;;;;;;;;;;;18.40;99.90;;;;;;5073051;28;19936;-77
2022/05/10 03:43:52;;;;;;;;;;;18.30;99.90;;;;;;5072784;28;19931;-76
2022/05/10 03:46:18;;;;;;;;;;;18.50;99.90;;;;;;5072922;28;20007;-76
2022/05/10 03:48:45;;;;;;;;;;;18.50;99.90;;;;;;5073042;28;19931;-76
2022/05/10 03:51:12;;;;;;;;;;;18.60;99.90;;;;;;5073001;28;19986;-77
2022/05/10 03:53:41;;;;;;;;;;;18.40;99.90;;;;;;5072802;28;19909;-76
2022/05/10 03:56:08;;;;;;;;;;;18.40;99.90;;;;;;5073040;28;19913;-77
2022/05/10 03:58:35;;;;;;;;;;;18.20;99.90;;;;;;5073010;28;20377;-77
2022/05/10 04:01:01;;;;;;;;;;;18.30;99.90;;;;;;5073076;28;19916;-76
2022/05/10 04:03:28;;;;;;;;;;;18.40;99.90;;;;;;5072877;28;20010;-76
2022/05/10 04:05:54;;;;;;;;;;;18.40;99.90;;;;;;5072788;28;19915;-76
2022/05/10 04:08:23;;;;;;;;;;;18.60;99.90;;;;;;5072895;28;19908;-76
2022/05/10 04:10:50;;;;;;;;;;;18.80;99.90;;;;;;5072942;28;19909;-76
2022/05/10 04:13:17;;;;;;;;;;;18.80;99.90;;;;;;5072962;28;19916;-76
2022/05/10 04:15:43;;;;;;;;;;;18.90;99.90;;;;;;5072733;28;20266;-76
2022/05/10 04:18:10;;;;;;;;;;;19.10;99.90;;;;;;5072741;28;20359;-76
2022/05/10 04:20:37;;;;;;;;;;;19.20;99.90;;;;;;5072701;28;19917;-76
2022/05/10 04:23:04;;;;;;;;;;;19.30;99.90;;;;;;5074744;28;20278;-76
2022/05/10 04:25:30;;;;;;;;;;;19.30;99.90;;;;;;5076452;28;19908;-76
2022/05/10 04:27:57;;;;;;;;;;;19.30;99.90;;;;;;5092193;28;20260;-77
2022/05/10 04:30:24;;;;;;;;;;;19.30;99.90;;;;;;5076462;28;19915;-76
2022/05/10 04:32:51;;;;;;;;;;;19.30;99.90;;;;;;5076248;28;19993;-74
2022/05/10 04:35:17;;;;;;;;;;;19.20;99.90;;;;;;5076263;28;19912;-76
2022/05/10 04:37:44;;;;;;;;;;;19.20;99.90;;;;;;5076203;28;19995;-75
2022/05/10 04:42:56;;;;;;;;;;;19.10;99.90;;;;;;5076603;28;19955;-77
2022/05/10 04:45:22;;;;;;;;;;;19.00;99.90;;;;;;5076113;28;19912;-77
2022/05/10 04:47:49;;;;;;;;;;;19.10;99.90;;;;;;5075662;28;19936;-77
2022/05/10 04:50:16;;;;;;;;;;;19.10;99.90;;;;;;5075985;28;19925;-77
2022/05/10 04:52:42;;;;;;;;;;;19.00;99.90;;;;;;5075983;28;19966;-77
2022/05/10 04:55:10;;;;;;;;;;;19.00;99.90;;;;;;5076045;28;20252;-78
2022/05/10 04:57:37;;;;;;;;;;;19.00;99.90;;;;;;5075723;28;19916;-77
2022/05/10 05:00:05;;;;;;;;;;;19.00;99.90;;;;;;5075860;28;20426;-77
2022/05/10 05:02:31;;;;;;;;;;;19.00;99.90;;;;;;5091488;28;19908;-77
2022/05/10 05:04:58;;;;;;;;;;;18.90;99.90;;;;;;5075636;28;19908;-76
2022/05/10 05:07:25;;;;;;;;;;;18.90;99.90;;;;;;5075802;28;19915;-77
2022/05/10 05:09:51;;;;;;;;;;;19.00;99.90;;;;;;5075390;28;19908;-77
2022/05/10 05:12:18;;;;;;;;;;;18.90;99.90;;;;;;5075686;28;19908;-77
2022/05/10 05:14:45;;;;;;;;;;;18.90;99.90;;;;;;5077813;28;20350;-76
2022/05/10 05:17:11;;;;;;;;;;;19.00;99.90;;;;;;5083484;28;19966;-75
2022/05/10 05:19:38;;;;;;;;;;;19.00;99.90;;;;;;5079799;28;19923;-74
2022/05/10 05:22:05;;;;;;;;;;;19.10;99.90;;;;;;5115725;28;19907;-75
2022/05/10 05:24:31;;;;;;;;;;;19.20;99.90;;;;;;5115909;28;19939;-74
2022/05/10 05:26:58;;;;;;;;;;;19.20;99.90;;;;;;5115844;28;19994;-75
2022/05/10 05:29:25;;;;;;;;;;;19.20;99.90;;;;;;5115745;28;19915;-74
2022/05/10 05:31:55;;;;;;;;;;;19.20;99.90;;;;;;5115451;28;19908;-75
2022/05/10 05:34:22;;;;;;;;;;;19.20;99.90;;;;;;5115799;28;19912;-75
2022/05/10 05:37:32;;;;;;;;;;;19.10;99.90;;;;;;5116075;28;19986;-76
2022/05/10 05:39:35;;;;;;;;;;;19.00;99.90;;;;;;5115449;28;20331;-76
2022/05/10 05:42:01;;;;;;;;;;;19.00;99.90;;;;;;5115479;28;20378;-76
2022/05/10 05:44:28;;;;;;;;;;;19.00;99.90;;;;;;5115623;28;20003;-77
2022/05/10 05:46:57;;;;;;;;;;;19.10;99.90;;;;;;5115616;28;19908;-75
2022/05/10 05:49:26;;;;;;;;;;;19.00;99.90;;;;;;5115192;28;19912;-78
2022/05/10 05:52:00;;;;;;;;;;;19.00;99.90;;;;;;5115430;28;19919;-77
2022/05/10 05:54:26;;;;;;;;;;;19.00;99.90;;;;;;5115610;28;19907;-76
2022/05/10 05:57:00;;;;;;;;;;;19.00;99.90;;;;;;5115446;28;20282;-76
2022/05/10 05:59:27;;;;;;;;;;;18.90;99.90;;;;;;5115323;28;20235;-77
2022/05/10 06:01:54;;;;;;;;;;;18.90;99.90;;;;;;5115423;28;19908;-77
2022/05/10 06:04:21;;;;;;;;;;;18.90;99.90;;;;;;5115196;28;19907;-78
2022/05/10 06:06:48;;;;;;;;;;;18.90;99.90;;;;;;5115138;28;20362;-77
2022/05/10 06:09:15;;;;;;;;;;;18.90;99.90;;;;;;5115163;28;20336;-77
2022/05/10 06:11:42;;;;;;;;;;;18.90;99.90;;;;;;5114960;28;19999;-76
2022/05/10 06:14:08;;;;;;;;;;;18.90;99.90;;;;;;5115184;28;20006;-76
2022/05/10 06:16:35;;;;;;;;;;;18.90;99.90;;;;;;5114956;28;20364;-76
2022/05/10 06:19:01;;;;;;;;;;;18.90;99.90;;;;;;5114797;28;19912;-76
2022/05/10 06:21:29;;;;;;;;;;;18.90;99.90;;;;;;5114919;28;19955;-77
2022/05/10 06:23:56;;;;;;;;;;;18.80;99.90;;;;;;5114950;28;20328;-76
2022/05/10 06:26:23;;;;;;;;;;;18.80;99.90;;;;;;5114845;28;20358;-76
2022/05/10 06:28:50;;;;;;;;;;;18.80;99.90;;;;;;5114889;28;19908;-76
2022/05/10 06:31:17;;;;;;;;;;;18.70;99.90;;;;;;5114757;28;19916;-77
2022/05/10 06:33:44;;;;;;;;;;;18.70;99.90;;;;;;5114265;28;20007;-76
2022/05/10 06:36:11;;;;;;;;;;;18.60;99.90;;;;;;5114628;28;19943;-76
2022/05/10 06:38:37;;;;;;;;;;;18.70;99.90;;;;;;5114535;28;20270;-76
2022/05/10 06:41:06;;;;;;;;;;;18.70;99.90;;;;;;5114581;28;19922;-76
2022/05/10 06:43:37;;;;;;;;;;;18.60;99.90;;;;;;5114298;28;19912;-76
2022/05/10 06:46:14;;;;;;;;;;;18.70;99.90;;;;;;5114107;28;19908;-76
2022/05/10 06:48:45;;;;;;;;;;;18.60;99.90;;;;;;5114435;28;19961;-76
2022/05/10 06:51:13;;;;;;;;;;;18.60;99.90;;;;;;5112684;28;19924;-76
2022/05/10 06:53:40;;;;;;;;;;;18.50;99.90;;;;;;5112211;28;19912;-77
2022/05/10 06:56:08;;;;;;;;;;;18.50;99.90;;;;;;5112201;28;19943;-77
2022/05/10 06:58:35;;;;;;;;;;;18.40;99.90;;;;;;5112405;28;19907;-77
2022/05/10 07:01:02;;;;;;;;;;;18.40;99.90;;;;;;5112256;28;19922;-76
2022/05/10 07:03:31;;;;;;;;;;;18.30;99.90;;;;;;5111929;28;19930;-76
2022/05/10 07:05:59;;;;;;;;;;;18.30;99.90;;;;;;5111806;28;19908;-77
2022/05/10 07:08:26;;;;;;;;;;;18.30;99.90;;;;;;5111954;28;19911;-77
2022/05/10 07:10:53;;;;;;;;;;;18.20;99.90;;;;;;5112060;28;19964;-77
2022/05/10 07:13:23;;;;;;;;;;;18.20;99.90;;;;;;5111947;28;19911;-77
2022/05/10 07:15:49;;;;;;;;;;;18.30;99.90;;;;;;5110199;28;19915;-77
2022/05/10 07:18:16;;;;;;;;;;;18.30;99.90;;;;;;5111401;28;19965;-77
2022/05/10 07:20:44;;;;;;;;;;;18.30;99.90;;;;;;5111610;28;19923;-77
2022/05/10 07:23:14;;;;;;;;;;;18.30;99.90;;;;;;5111738;28;19923;-80
2022/05/10 07:25:41;;;;;;;;;;;18.40;99.90;;;;;;5111549;28;19918;-75
2022/05/10 07:28:07;;;;;;;;;;;18.40;99.90;;;;;;5111858;28;20010;-75
2022/05/10 07:30:35;;;;;;;;;;;18.40;99.90;;;;;;5111368;28;20377;-75
2022/05/10 07:33:03;;;;;;;;;;;18.40;99.90;;;;;;5111641;28;19915;-76
2022/05/10 07:38:16;;;;;;;;;;;18.20;99.90;;;;;;5112029;28;20270;-76
2022/05/10 07:40:44;;;;;;;;;;;18.30;99.90;;;;;;5111384;28;20323;-75
2022/05/10 07:43:12;;;;;;;;;;;18.30;99.90;;;;;;5111240;28;19915;-76
2022/05/10 07:45:40;;;;;;;;;;;18.30;99.90;;;;;;5111130;28;19908;-76
2022/05/10 07:48:07;;;;;;;;;;;18.30;99.90;;;;;;5109927;28;19938;-77
2022/05/10 07:50:34;;;;;;;;;;;18.30;99.90;;;;;;5111442;28;19927;-75
2022/05/10 07:53:06;;;;;;;;;;;18.30;99.90;;;;;;5111561;28;19932;-76
2022/05/10 07:55:33;;;;;;;;;;;18.30;99.90;;;;;;5111241;28;19916;-77
2022/05/10 07:58:00;;;;;;;;;;;18.30;99.90;;;;;;5113248;28;19950;-76
2022/05/10 08:00:30;;;;;;;;;;;18.30;99.90;;;;;;5115510;28;20010;-77
2022/05/10 08:02:57;;;;;;;;;;;18.30;99.90;;;;;;5115337;28;19960;-77
2022/05/10 08:05:24;;;;;;;;;;;18.30;99.90;;;;;;5115493;28;19907;-77
2022/05/10 08:07:51;;;;;;;;;;;18.30;99.90;;;;;;5115126;28;19911;-77
2022/05/10 08:10:21;;;;;;;;;;;18.20;99.90;;;;;;5115107;28;19907;-77
2022/05/10 08:12:47;;;;;;;;;;;18.30;99.90;;;;;;5115366;28;19912;-78
2022/05/10 08:15:15;;;;;;;;;;;18.30;99.90;;;;;;5114073;28;19911;-77
2022/05/10 08:17:41;;;;;;;;;;;18.30;99.90;;;;;;5115075;28;19908;-77
2022/05/10 08:20:08;;;;;;;;;;;18.30;99.90;;;;;;5115281;28;19942;-77
2022/05/10 08:22:35;;;;;;;;;;;18.30;99.90;;;;;;5115196;28;19916;-77
2022/05/10 08:25:02;;;;;;;;;;;18.30;99.90;;;;;;5115214;28;20365;-77
2022/05/10 08:27:28;;;;;;;;;;;18.30;99.90;;;;;;5114009;28;20327;-77
2022/05/10 08:29:55;;;;;;;;;;;18.30;99.90;;;;;;5115089;28;19915;-77
2022/05/10 08:32:22;;;;;;;;;;;18.30;99.90;;;;;;5113487;28;20250;-78
2022/05/10 08:34:48;;;;;;;;;;;18.20;99.90;;;;;;5114977;28;20400;-77
2022/05/10 08:37:15;;;;;;;;;;;18.30;99.90;;;;;;5114575;28;19912;-78
2022/05/10 08:39:42;;;;;;;;;;;18.20;99.90;;;;;;5114746;28;19915;-77
2022/05/10 08:42:18;;;;;;;;;;;18.20;99.90;;;;;;5115034;28;19912;-77
2022/05/10 08:44:49;;;;;;;;;;;18.10;99.90;;;;;;5114872;28;19912;-77
2022/05/10 08:47:15;;;;;;;;;;;18.00;99.90;;;;;;5114620;28;20269;-78
2022/05/10 08:49:42;;;;;;;;;;;18.00;99.90;;;;;;5113544;28;19923;-77
2022/05/10 08:52:11;;;;;;;;;;;18.00;99.90;;;;;;5113371;28;19942;-78
2022/05/10 08:54:39;;;;;;;;;;;18.00;99.90;;;;;;5113396;28;20608;-77
2022/05/10 08:57:10;;;;;;;;;;;18.00;99.90;;;;;;5089899;28;19912;-77
2022/05/10 08:59:39;;;;;;;;;;;18.00;99.90;;;;;;5072488;28;19913;-77
2022/05/10 09:02:25;;;;;;;;;;;18.10;99.90;;;;;;5072477;28;19999;-78
2022/05/10 09:05:18;;;;;;;;;;;18.00;99.90;;;;;;5072727;28;19996;-78
2022/05/10 09:07:53;;;;;;;;;;;18.00;99.90;;;;;;5065484;28;19916;-78
2022/05/10 09:10:23;;;;;;;;;;;18.00;99.90;;;;;;5074172;28;19909;-77
2022/05/10 09:12:58;;;;;;;;;;;18.00;99.90;;;;;;5074769;28;19909;-77
2022/05/10 09:15:26;;;;;;;;;;;18.00;99.90;;;;;;5074579;28;20266;-77
2022/05/10 09:17:53;;;;;;;;;;;17.90;99.90;;;;;;5074132;28;19912;-77
2022/05/10 09:20:19;;;;;;;;;;;18.00;99.90;;;;;;5073917;28;20315;-77
2022/05/10 09:23:02;;;;;;;;;;;17.90;99.90;;;;;;5074460;28;19909;-77
2022/05/10 09:25:36;;;;;;;;;;;17.90;99.90;;;;;;5074523;28;20286;-77
2022/05/10 09:28:23;;;;;;;;;;;17.80;99.90;;;;;;5074450;28;19913;-77
2022/05/10 09:36:27;;;;;;;;;;;17.80;99.90;;;;;;5074829;28;20378;-77
2022/05/10 09:38:59;;;;;;;;;;;17.70;99.90;;;;;;5074331;28;20330;-77
2022/05/10 09:41:51;;;;;;;;;;;17.70;99.90;;;;;;5075032;28;19912;-77
2022/05/10 09:44:23;;;;;;;;;;;17.70;99.90;;;;;;5075115;28;19909;-76
2022/05/10 09:46:50;;;;;;;;;;;17.70;99.90;;;;;;5073952;28;19931;-76
2022/05/10 09:49:31;;;;;;;;;;;17.80;99.90;;;;;;4947099;28;3618900;-76
2022/05/10 09:51:58;;;;;;;;;;;17.70;99.90;;;;;;5075077;28;19997;-77
2022/05/10 09:54:36;;;;;;;;;;;17.70;99.90;;;;;;5074909;28;19928;-76
2022/05/10 09:57:03;;;;;;;;;;;17.70;99.90;;;;;;5074971;28;19919;-77
2022/05/10 09:59:46;;;;;;;;;;;17.60;99.90;;;;;;5074704;28;19920;-76
2022/05/10 10:02:33;;;;;;;;;;;17.60;99.90;;;;;;5074714;28;20272;-76
2022/05/10 10:05:16;;;;;;;;;;;17.60;99.90;;;;;;5074633;28;20419;-77
2022/05/10 10:07:51;;;;;;;;;;;17.50;99.90;;;;;;5074680;28;19919;-76
2022/05/10 10:10:20;;;;;;;;;;;17.50;99.90;;;;;;5074577;28;19999;-77
2022/05/10 10:12:47;;;;;;;;;;;17.60;99.90;;;;;;5074575;28;19908;-76
2022/05/10 10:15:26;;;;;;;;;;;17.60;99.90;;;;;;5074767;28;20003;-76
2022/05/10 10:17:58;;;;;;;;;;;17.60;99.90;;;;;;5074157;28;19919;-76
2022/05/10 10:20:43;;;;;;;;;;;17.60;99.90;;;;;;5073741;28;20287;-76
2022/05/10 10:23:27;;;;;;;;;;;17.50;99.90;;;;;;5074878;28;19910;-76
2022/05/10 10:26:20;;;;;;;;;;;17.50;99.90;;;;;;5074643;28;19915;-76
2022/05/10 10:28:47;;;;;;;;;;;17.60;99.90;;;;;;5077016;28;19952;-77
2022/05/10 10:31:20;;;;;;;;;;;17.60;99.90;;;;;;5072453;28;19912;-77
2022/05/10 10:34:00;;;;;;;;;;;17.60;99.90;;;;;;5072384;28;19913;-77
2022/05/10 10:36:38;;;;;;;;;;;17.60;99.90;;;;;;5073441;28;19920;-76
2022/05/10 10:39:06;;;;;;;;;;;17.60;99.90;;;;;;5072464;28;19912;-77
2022/05/10 10:41:33;;;;;;;;;;;17.60;99.90;;;;;;5071790;28;20003;-77
2022/05/10 10:44:21;;;;;;;;;;;17.60;99.90;;;;;;5072051;28;19914;-77
2022/05/10 10:47:00;;;;;;;;;;;17.60;99.90;;;;;;5071846;28;19912;-77
2022/05/10 10:49:31;;;;;;;;;;;17.60;99.90;;;;;;5071799;28;20401;-77
2022/05/10 10:51:58;;;;;;;;;;;17.60;99.90;;;;;;5072019;28;19908;-78
2022/05/10 10:54:28;;;;;;;;;;;17.60;99.90;;;;;;5071546;28;19908;-77
2022/05/10 10:57:13;;;;;;;;;;;17.60;99.90;;;;;;5071815;28;20351;-77
2022/05/10 10:59:58;;;;;;;;;;;17.60;99.90;;;;;;5071348;28;20330;-77
2022/05/10 11:02:36;;;;;;;;;;;17.60;99.90;;;;;;5071426;28;19908;-77
2022/05/10 11:05:21;;;;;;;;;;;17.60;99.90;;;;;;5071077;28;19916;-76
2022/05/10 11:08:01;;;;;;;;;;;17.60;99.90;;;;;;5071365;28;19912;-77
2022/05/10 11:10:39;;;;;;;;;;;17.60;99.90;;;;;;5072666;28;19908;-77
2022/05/10 11:13:24;;;;;;;;;;;17.60;99.90;;;;;;5071914;28;19913;-78
2022/05/10 11:15:53;;;;;;;;;;;17.70;99.90;;;;;;5071293;28;20418;-76
2022/05/10 11:18:35;;;;;;;;;;;17.70;99.90;;;;;;5071639;28;20445;-77
2022/05/10 11:21:14;;;;;;;;;;;17.70;99.90;;;;;;5070709;28;20002;-77
2022/05/10 11:23:56;;;;;;;;;;;17.70;99.90;;;;;;5071284;28;19915;-77
2022/05/10 11:26:30;;;;;;;;;;;17.70;99.90;;;;;;5071334;28;19940;-77
2022/05/10 11:28:57;;;;;;;;;;;17.60;99.90;;;;;;5071754;28;20013;-77
2022/05/10 11:31:33;;;;;;;;;;;17.70;99.90;;;;;;5070961;28;19919;-76
2022/05/10 11:34:17;;;;;;;;;;;17.70;99.90;;;;;;5070785;28;19924;-77
2022/05/10 11:36:49;;;;;;;;;;;17.70;99.90;;;;;;5071339;28;20394;-76
2022/05/10 11:39:37;;;;;;;;;;;17.70;99.90;;;;;;5071065;28;19920;-78
2022/05/10 11:42:19;;;;;;;;;;;17.80;99.90;;;;;;5071569;28;19908;-76
2022/05/10 11:44:57;;;;;;;;;;;17.80;99.90;;;;;;5071178;28;19944;-76
2022/05/10 11:47:44;;;;;;;;;;;17.80;99.90;;;;;;5070972;28;20012;-76
2022/05/10 11:50:13;;;;;;;;;;;17.90;99.90;;;;;;5066565;28;19947;-76
2022/05/10 11:52:43;;;;;;;;;;;17.90;99.90;;;;;;5073156;28;20263;-76
2022/05/10 11:55:28;;;;;;;;;;;17.90;99.90;;;;;;5073034;28;19920;-76
2022/05/10 11:57:58;;;;;;;;;;;17.90;99.90;;;;;;5072857;28;19909;-77
2022/05/10 12:00:27;;;;;;;;;;;17.90;99.90;;;;;;5072803;28;19916;-77
2022/05/10 12:02:54;;;;;;;;;;;17.90;99.90;;;;;;5073599;28;19950;-76
2022/05/10 12:05:21;;;;;;;;;;;18.00;99.90;;;;;;5072381;28;19908;-77
2022/05/10 12:07:55;;;;;;;;;;;17.90;99.90;;;;;;5072647;28;19938;-77
2022/05/10 12:10:35;;;;;;;;;;;18.00;99.90;;;;;;5073009;28;19908;-77
2022/05/10 12:13:04;;;;;;;;;;;17.90;99.90;;;;;;5073039;28;19977;-77
2022/05/10 12:21:19;;;;;;;;;;;18.00;99.90;;;;;;5072590;28;20015;-77
2022/05/10 12:24:03;;;;;;;;;;;18.00;99.90;;;;;;5072586;28;20303;-77
2022/05/10 12:26:46;;;;;;;;;;;18.00;99.90;;;;;;5072660;28;19912;-76
2022/05/10 12:29:31;;;;;;;;;;;18.00;99.90;;;;;;5072751;28;20006;-77
2022/05/10 12:32:02;;;;;;;;;;;18.00;99.90;;;;;;5072554;28;19943;-76
2022/05/10 12:34:38;;;;;;;;;;;18.00;99.90;;;;;;5072242;28;19909;-76
2022/05/10 12:37:22;;;;;;;;;;;18.00;99.90;;;;;;5072639;28;19916;-76
2022/05/10 12:39:56;;;;;;;;;;;18.00;99.90;;;;;;5072364;28;19916;-76
2022/05/10 12:42:27;;;;;;;;;;;18.00;99.90;;;;;;5072627;28;19919;-76
2022/05/10 12:44:55;;;;;;;;;;;17.90;99.90;;;;;;5075388;28;19916;-76
2022/05/10 12:47:40;;;;;;;;;;;18.00;99.90;;;;;;5076165;28;20011;-76
2022/05/10 12:50:12;;;;;;;;;;;17.90;99.90;;;;;;5076198;28;19927;-75
2022/05/10 12:52:43;;;;;;;;;;;17.90;99.90;;;;;;5076207;28;19908;-75
2022/05/10 12:55:16;;;;;;;;;;;17.80;99.90;;;;;;5076229;28;19966;-75
2022/05/10 12:57:45;;;;;;;;;;;17.60;99.90;;;;;;5074946;28;20432;-76
2022/05/10 13:00:14;;;;;;;;;;;17.50;99.90;;;;;;5075966;28;19916;-75
2022/05/10 13:02:45;;;;;;;;;;;17.30;99.90;;;;;;5075924;28;20315;-76
2022/05/10 13:05:17;;;;;;;;;;;17.10;99.90;;;;;;5075842;28;20294;-75
2022/05/10 13:08:02;;;;;;;;;;;17.00;99.90;;;;;;5075541;28;19908;-76
2022/05/10 13:10:30;;;;;;;;;;;16.80;99.90;;;;;;5075977;28;19916;-75
2022/05/10 13:13:08;;;;;;;;;;;16.70;99.90;;;;;;5075801;28;19913;-75
2022/05/10 13:15:40;;;;;;;;;;;16.70;99.90;;;;;;5075269;28;19999;-74
2022/05/10 13:18:12;;;;;;;;;;;16.60;99.90;;;;;;5075750;28;19908;-75
2022/05/10 13:20:44;;;;;;;;;;;16.50;99.90;;;;;;5075509;28;20355;-74
2022/05/10 13:23:11;;;;;;;;;;;16.50;99.90;;;;;;5075629;28;19908;-75
2022/05/10 13:25:42;;;;;;;;;;;16.50;99.90;;;;;;5075352;28;19909;-75
2022/05/10 13:28:09;;;;;;;;;;;16.30;99.90;;;;;;5075610;28;19908;-74
2022/05/10 13:30:38;;;;;;;;;;;16.20;99.90;;;;;;5075352;28;19963;-76
2022/05/10 13:33:05;;;;;;;;;;;16.20;99.90;;;;;;5075408;28;20355;-75
2022/05/10 13:35:33;;;;;;;;;;;16.20;99.90;;;;;;5075173;28;19909;-74
2022/05/10 13:38:00;;;;;;;;;;;16.30;99.90;;;;;;5075404;28;19912;-74
2022/05/10 13:40:29;;;;;;;;;;;16.30;99.90;;;;;;5075312;28;19916;-74
2022/05/10 13:42:58;;;;;;;;;;;16.20;99.90;;;;;;5075350;28;20015;-74
2022/05/10 13:45:26;;;;;;;;;;;16.10;99.90;;;;;;5074845;28;19913;-74
2022/05/10 13:48:00;;;;;;;;;;;16.10;99.90;;;;;;5075247;28;20145;-75
2022/05/10 13:50:28;;;;;;;;;;;16.10;99.90;;;;;;5074872;28;19921;-74
2022/05/10 13:53:04;;;;;;;;;;;16.00;99.90;;;;;;5075050;28;19908;-74
2022/05/10 13:55:30;;;;;;;;;;;15.90;99.90;;;;;;5073656;28;19909;-75
2022/05/10 13:58:00;;;;;;;;;;;15.80;99.90;;;;;;5074767;28;20432;-74
2022/05/10 14:00:41;;;;;;;;;;;15.70;99.90;;;;;;5074684;28;19916;-74
2022/05/10 14:03:15;;;;;;;;;;;15.70;99.90;;;;;;5074918;28;19922;-74
2022/05/10 14:05:46;;;;;;;;;;;15.80;99.90;;;;;;5074705;28;20351;-74
2022/05/10 14:08:13;;;;;;;;;;;15.90;99.90;;;;;;5074776;28;20412;-74
2022/05/10 14:10:40;;;;;;;;;;;15.90;99.90;;;;;;5074818;28;19909;-73
2022/05/10 14:13:12;;;;;;;;;;;16.00;99.90;;;;;;5074709;28;20355;-74
2022/05/10 14:15:43;;;;;;;;;;;16.00;99.90;;;;;;5074346;28;19908;-73
2022/05/10 14:18:14;;;;;;;;;;;16.10;99.90;;;;;;5074613;28;20363;-73
2022/05/10 14:20:44;;;;;;;;;;;16.10;99.90;;;;;;5074413;28;19959;-73
2022/05/10 14:23:14;;;;;;;;;;;16.10;99.90;;;;;;5074387;28;19912;-73
2022/05/10 14:25:50;;;;;;;;;;;16.10;99.90;;;;;;5074325;28;19912;-74
2022/05/10 14:28:25;;;;;;;;;;;16.10;99.90;;;;;;5074499;28;19974;-73
2022/05/10 14:30:55;;;;;;;;;;;16.20;99.90;;;;;;5074132;28;19955;-73
2022/05/10 14:33:23;;;;;;;;;;;16.20;99.90;;;;;;5074265;28;19916;-73
2022/05/10 14:36:00;;;;;;;;;;;16.30;99.90;;;;;;5074126;28;19912;-73
2022/05/10 14:38:27;;;;;;;;;;;16.20;99.90;;;;;;5074225;28;19908;-73
2022/05/10 14:40:55;;;;;;;;;;;16.10;99.90;;;;;;5074113;28;19916;-73
2022/05/10 14:43:32;;;;;;;;;;;16.10;99.90;;;;;;5074170;28;19908;-74
2022/05/10 14:46:00;;;;;;;;;;;16.00;99.90;;;;;;5073917;28;19912;-73
2022/05/10 14:48:34;;;;;;;;;;;16.10;99.90;;;;;;5074041;28;20062;-73
2022/05/10 14:51:09;;;;;;;;;;;16.10;99.90;;;;;;5073737;28;19925;-72
2022/05/10 14:53:39;;;;;;;;;;;16.10;99.90;;;;;;5073766;28;19908;-73
2022/05/10 14:56:05;;;;;;;;;;;16.10;99.90;;;;;;5073796;28;19908;-72
2022/05/10 14:58:35;;;;;;;;;;;16.20;99.90;;;;;;5073857;28;19963;-73
2022/05/10 15:01:24;;;;;;;;;;;16.20;99.90;;;;;;5073582;28;19923;-73